createdAt,value
2022-09-20T00:01:36.886Z,98244.09
2022-09-20T00:04:05.018Z,98241.00
2022-09-20T00:06:33.964Z,98233.69
2022-09-20T00:09:01.559Z,98235.34
2022-09-20T00:11:30.901Z,98244.13
2022-09-20T00:14:00.864Z,98238.28
2022-09-20T00:16:31.794Z,98241.88
2022-09-20T00:19:01.247Z,98237.97
2022-09-20T00:21:30.791Z,98242.31
2022-09-20T00:23:58.738Z,98257.69
2022-09-20T00:26:28.346Z,98248.50
2022-09-20T00:28:57.472Z,98247.28
2022-09-20T00:31:24.933Z,98242.94
2022-09-20T00:33:56.223Z,98245.44
2022-09-20T00:36:23.739Z,98242.47
2022-09-20T00:38:55.872Z,98240.03
2022-09-20T00:41:23.297Z,98246.25
2022-09-20T00:43:50.759Z,98245.44
2022-09-20T00:46:23.677Z,98242.09
2022-09-20T00:48:56.104Z,98245.47
2022-09-20T00:51:30.000Z,98244.84
2022-09-20T00:54:01.069Z,98246.97
2022-09-20T00:56:31.983Z,98244.66
2022-09-20T00:59:06.595Z,98249.28
2022-09-20T01:01:34.227Z,98244.69
2022-09-20T01:04:02.771Z,98247.81
2022-09-20T01:06:34.027Z,98237.88
2022-09-20T01:09:05.509Z,98242.22
2022-09-20T01:11:35.384Z,98242.22
2022-09-20T01:14:03.097Z,98237.88
2022-09-20T01:16:32.195Z,98239.13
2022-09-20T01:19:05.381Z,98243.06
2022-09-20T01:21:34.630Z,98248.69
2022-09-20T01:24:13.274Z,98242.88
2022-09-20T01:27:13.370Z,98239.09
2022-09-20T01:30:03.586Z,98238.06
2022-09-20T01:32:42.766Z,98235.97
2022-09-20T01:35:11.258Z,98232.03
2022-09-20T01:37:50.451Z,98235.78
2022-09-20T01:40:24.729Z,98239.31
2022-09-20T01:43:02.792Z,98239.53
2022-09-20T01:45:32.737Z,98242.22
2022-09-20T01:48:12.440Z,98239.94
2022-09-20T01:50:49.566Z,98245.97
2022-09-20T01:53:46.346Z,98242.66
2022-09-20T01:57:07.983Z,98251.38
2022-09-20T01:59:57.963Z,98238.25
2022-09-20T02:02:49.622Z,98242.41
2022-09-20T02:05:38.606Z,98242.19
2022-09-20T02:08:22.482Z,98240.94
2022-09-20T02:11:07.039Z,98249.06
2022-09-20T02:13:50.654Z,98244.19
2022-09-20T02:16:36.090Z,98245.53
2022-09-20T02:19:27.981Z,98248.81
2022-09-20T02:22:10.870Z,98256.78
2022-09-20T02:24:46.629Z,98259.09
2022-09-20T02:27:23.744Z,98252.16
2022-09-20T02:30:03.886Z,98244.91
2022-09-20T02:32:59.111Z,98252.44
2022-09-20T02:35:40.916Z,98254.31
2022-09-20T02:38:29.334Z,98248.06
2022-09-20T02:41:29.533Z,98250.19
2022-09-20T02:44:04.789Z,98253.25
2022-09-20T02:46:41.316Z,98247.84
2022-09-20T02:49:15.399Z,98254.53
2022-09-20T02:51:52.266Z,98248.50
2022-09-20T02:54:34.095Z,98254.47
2022-09-20T02:57:12.312Z,98255.28
2022-09-20T02:59:46.885Z,98252.81
2022-09-20T03:02:25.143Z,98258.47
2022-09-20T03:05:06.061Z,98256.97
2022-09-20T03:07:46.380Z,98257.66
2022-09-20T03:10:21.761Z,98265.53
2022-09-20T03:13:07.895Z,98265.72
2022-09-20T03:15:49.002Z,98268.50
2022-09-20T03:18:18.886Z,98271.22
2022-09-20T03:20:57.954Z,98269.50
2022-09-20T03:23:41.287Z,98269.34
2022-09-20T03:26:18.220Z,98261.22
2022-09-20T03:28:58.042Z,98264.44
2022-09-20T03:31:48.359Z,98266.56
2022-09-20T03:34:30.047Z,98272.03
2022-09-20T03:37:13.895Z,98265.91
2022-09-20T03:40:03.731Z,98269.22
2022-09-20T03:42:31.898Z,98272.66
2022-09-20T03:45:29.124Z,98264.59
2022-09-20T03:48:28.712Z,98270.44
2022-09-20T03:51:10.165Z,98267.34
2022-09-20T03:53:58.109Z,98271.03
2022-09-20T03:57:03.840Z,98272.22
2022-09-20T03:59:50.851Z,98261.38
2022-09-20T04:02:33.447Z,98270.56
2022-09-20T04:05:06.382Z,98269.78
2022-09-20T04:07:45.749Z,98276.22
2022-09-20T04:10:30.998Z,98272.78
2022-09-20T04:13:13.673Z,98272.41
2022-09-20T04:15:54.571Z,98280.44
2022-09-20T04:18:29.167Z,98279.25
2022-09-20T04:21:04.136Z,98283.09
2022-09-20T04:23:43.017Z,98289.97
2022-09-20T04:26:10.970Z,98296.94
2022-09-20T04:28:46.315Z,98292.59
2022-09-20T04:31:24.629Z,98300.13
2022-09-20T04:33:57.102Z,98298.78
2022-09-20T04:36:55.878Z,98293.16
2022-09-20T04:39:34.629Z,98296.56
2022-09-20T04:42:53.746Z,98300.81
2022-09-20T04:46:04.982Z,98295.34
2022-09-20T04:49:08.269Z,98302.97
2022-09-20T04:52:04.295Z,98301.19
2022-09-20T04:55:05.014Z,98297.31
2022-09-20T04:58:11.355Z,98295.78
2022-09-20T05:00:57.720Z,98303.63
2022-09-20T05:03:45.169Z,98301.50
2022-09-20T05:06:34.481Z,98295.16
2022-09-20T05:09:37.178Z,98300.03
2022-09-20T05:12:24.369Z,98299.03
2022-09-20T05:15:14.601Z,98304.00
2022-09-20T05:18:07.606Z,98301.78
2022-09-20T05:20:52.151Z,98299.66
2022-09-20T05:24:00.094Z,98300.31
2022-09-20T05:26:42.839Z,98301.13
2022-09-20T05:29:18.430Z,98292.78
2022-09-20T05:31:53.352Z,98297.31
2022-09-20T05:34:27.265Z,98295.78
2022-09-20T05:37:02.065Z,98286.53
2022-09-20T05:39:37.175Z,98300.78
2022-09-20T05:42:18.687Z,98293.44
2022-09-20T05:44:56.636Z,98298.44
2022-09-20T05:47:32.674Z,98297.88
2022-09-20T05:50:16.298Z,98297.53
2022-09-20T05:52:52.978Z,98296.63
2022-09-20T05:55:30.966Z,98300.09
2022-09-20T05:58:15.158Z,98303.63
2022-09-20T06:00:48.894Z,98295.59
2022-09-20T06:03:26.718Z,98295.88
2022-09-20T06:06:02.980Z,98297.88
2022-09-20T06:09:10.154Z,98301.53
2022-09-20T06:12:05.300Z,98295.66
2022-09-20T06:14:44.028Z,98301.13
2022-09-20T06:17:21.923Z,98304.16
2022-09-20T06:19:59.579Z,98309.34
2022-09-20T06:22:29.980Z,98296.78
2022-09-20T06:25:03.058Z,98293.56
2022-09-20T06:27:35.082Z,98303.50
2022-09-20T06:30:08.263Z,98300.38
2022-09-20T06:32:35.725Z,98302.13
2022-09-20T06:35:04.975Z,98299.44
2022-09-20T06:37:44.360Z,98296.28
2022-09-20T06:40:24.281Z,98288.25
2022-09-20T06:42:51.685Z,98292.34
2022-09-20T06:45:20.646Z,98287.75
2022-09-20T06:47:48.178Z,98287.19
2022-09-20T06:50:16.321Z,98285.72
2022-09-20T06:52:44.602Z,98286.59
2022-09-20T06:55:18.192Z,98287.06
2022-09-20T06:57:45.699Z,98287.44
2022-09-20T07:00:15.154Z,98277.13
2022-09-20T07:02:44.014Z,98279.06
2022-09-20T07:05:15.238Z,98273.63
2022-09-20T07:07:43.467Z,98275.75
2022-09-20T07:10:11.119Z,98280.38
2022-09-20T07:12:38.569Z,98271.97
2022-09-20T07:15:07.225Z,98275.31
2022-09-20T07:17:34.887Z,98274.25
2022-09-20T07:20:04.059Z,98275.66
2022-09-20T07:22:31.699Z,98269.50
2022-09-20T07:24:59.742Z,98276.34
2022-09-20T07:27:29.339Z,98273.56
2022-09-20T07:29:57.393Z,98272.72
2022-09-20T07:32:24.814Z,98268.69
2022-09-20T07:34:52.299Z,98267.66
2022-09-20T07:37:21.100Z,98266.38
2022-09-20T07:39:48.645Z,98269.03
2022-09-20T07:42:16.302Z,98266.72
2022-09-20T07:44:43.703Z,98268.34
2022-09-20T07:47:11.284Z,98262.78
2022-09-20T07:49:38.849Z,98261.50
2022-09-20T07:52:06.719Z,98267.19
2022-09-20T07:54:35.578Z,98265.22
2022-09-20T07:57:03.047Z,98262.38
2022-09-20T07:59:30.486Z,98264.75
2022-09-20T08:01:57.952Z,98261.22
2022-09-20T08:04:26.054Z,98258.25
2022-09-20T08:06:53.999Z,98256.81
2022-09-20T08:09:21.333Z,98254.25
2022-09-20T08:11:50.171Z,98250.63
2022-09-20T08:14:18.485Z,98250.75
2022-09-20T08:16:47.908Z,98253.28
2022-09-20T08:19:17.114Z,98245.63
2022-09-20T08:21:45.162Z,98236.59
2022-09-20T08:24:13.340Z,98240.75
2022-09-20T08:26:40.858Z,98240.34
2022-09-20T08:29:10.547Z,98240.19
2022-09-20T08:31:38.660Z,98236.31
2022-09-20T08:34:07.172Z,98236.81
2022-09-20T08:36:37.108Z,98244.72
2022-09-20T08:41:56.214Z,98242.09
2022-09-20T08:44:29.564Z,98241.91
2022-09-20T08:47:06.805Z,98246.50
2022-09-20T08:49:35.007Z,98243.78
2022-09-20T08:52:04.322Z,98240.38
2022-09-20T08:54:34.720Z,98243.22
2022-09-20T08:57:04.317Z,98233.88
2022-09-20T08:59:33.478Z,98227.38
2022-09-20T09:02:01.495Z,98229.06
2022-09-20T09:04:35.699Z,98229.88
2022-09-20T09:07:03.748Z,98222.59
2022-09-20T09:09:37.550Z,98224.97
2022-09-20T09:12:05.852Z,98228.13
2022-09-20T09:14:35.873Z,98224.34
2022-09-20T09:17:03.390Z,98222.44
2022-09-20T09:19:33.937Z,98223.88
2022-09-20T09:22:03.967Z,98225.78
2022-09-20T09:24:31.225Z,98222.84
2022-09-20T09:27:07.832Z,98226.19
2022-09-20T09:29:48.511Z,98218.78
2022-09-20T09:32:22.135Z,98219.69
2022-09-20T09:34:49.821Z,98222.44
2022-09-20T09:37:28.609Z,98219.44
2022-09-20T09:40:14.978Z,98218.38
2022-09-20T09:42:49.928Z,98213.47
2022-09-20T09:45:31.346Z,98214.03
2022-09-20T09:48:00.673Z,98216.00
2022-09-20T09:50:31.051Z,98220.22
2022-09-20T09:53:10.222Z,98214.47
2022-09-20T09:56:07.960Z,98216.38
2022-09-20T09:59:02.216Z,98204.25
2022-09-20T10:01:39.319Z,98213.78
2022-09-20T10:04:16.070Z,98205.78
2022-09-20T10:06:52.446Z,98207.50
2022-09-20T10:09:34.265Z,98202.00
2022-09-20T10:12:14.439Z,98207.44
2022-09-20T10:14:57.639Z,98204.53
2022-09-20T10:17:52.039Z,98204.50
2022-09-20T10:20:42.896Z,98216.09
2022-09-20T10:23:58.703Z,98211.09
2022-09-20T10:26:32.017Z,98214.13
2022-09-20T10:29:10.063Z,98205.44
2022-09-20T10:31:48.383Z,98208.19
2022-09-20T10:34:46.421Z,98213.88
2022-09-20T10:37:19.314Z,98212.66
2022-09-20T10:39:53.645Z,98210.50
2022-09-20T10:42:37.968Z,98213.38
2022-09-20T10:45:36.019Z,98216.16
2022-09-20T10:48:05.970Z,98209.97
2022-09-20T10:50:42.558Z,98213.34
2022-09-20T10:53:29.234Z,98214.69
2022-09-20T10:56:09.618Z,98206.31
2022-09-20T10:59:03.058Z,98211.97
2022-09-20T11:01:36.772Z,98215.53
2022-09-20T11:04:32.505Z,98206.84
2022-09-20T11:07:11.832Z,98212.00
2022-09-20T11:09:43.265Z,98202.19
2022-09-20T11:12:15.362Z,98202.47
2022-09-20T11:14:49.414Z,98200.13
2022-09-20T11:17:23.328Z,98195.66
2022-09-20T11:19:59.221Z,98195.09
2022-09-20T11:22:34.868Z,98195.19
2022-09-20T11:25:14.064Z,98199.34
2022-09-20T11:27:48.199Z,98195.91
2022-09-20T11:30:19.176Z,98187.53
2022-09-20T11:32:51.526Z,98188.84
2022-09-20T11:35:29.319Z,98194.38
2022-09-20T11:38:09.842Z,98197.06
2022-09-20T11:40:43.382Z,98179.50
2022-09-20T11:43:13.880Z,98183.66
2022-09-20T11:45:43.511Z,98194.97
2022-09-20T11:48:15.034Z,98180.31
2022-09-20T11:51:10.260Z,98184.56
2022-09-20T11:53:55.819Z,98177.59
2022-09-20T11:56:25.850Z,98173.94
2022-09-20T11:58:55.823Z,98175.38
2022-09-20T12:01:28.730Z,98174.88
2022-09-20T12:04:20.534Z,98176.50
2022-09-20T12:06:47.378Z,98172.41
2022-09-20T12:09:26.433Z,98172.25
2022-09-20T12:11:54.952Z,98169.78
2022-09-20T12:14:25.378Z,98169.41
2022-09-20T12:16:53.706Z,98173.34
2022-09-20T12:19:37.427Z,98168.28
2022-09-20T12:22:27.575Z,98167.19
2022-09-20T12:25:27.500Z,98171.34
2022-09-20T12:27:59.463Z,98168.97
2022-09-20T12:30:27.082Z,98171.44
2022-09-20T12:32:56.940Z,98175.25
2022-09-20T12:36:12.316Z,98172.16
2022-09-20T12:38:47.674Z,98165.88
2022-09-20T12:41:27.539Z,98171.78
2022-09-20T12:44:01.748Z,98164.72
2022-09-20T12:46:40.596Z,98165.78
2022-09-20T12:49:26.663Z,98157.06
2022-09-20T12:51:54.235Z,98158.59
2022-09-20T12:54:21.770Z,98163.16
2022-09-20T12:56:49.707Z,98170.38
2022-09-20T12:59:25.626Z,98165.03
2022-09-20T13:01:53.131Z,98170.28
2022-09-20T13:04:54.376Z,98164.78
2022-09-20T13:07:52.345Z,98169.66
2022-09-20T13:10:34.195Z,98170.88
2022-09-20T13:13:11.315Z,98165.06
2022-09-20T13:15:41.004Z,98175.94
2022-09-20T13:18:12.629Z,98174.88
2022-09-20T13:20:42.843Z,98181.75
2022-09-20T13:23:19.518Z,98175.66
2022-09-20T13:25:48.582Z,98177.13
2022-09-20T13:28:26.900Z,98180.31
2022-09-20T13:31:26.351Z,98183.63
2022-09-20T13:33:54.624Z,98175.72
2022-09-20T13:36:28.231Z,98183.63
2022-09-20T13:38:57.487Z,98174.53
2022-09-20T13:41:28.751Z,98186.34
2022-09-20T13:43:56.788Z,98184.56
2022-09-20T13:46:30.665Z,98181.25
2022-09-20T13:49:15.177Z,98184.81
2022-09-20T13:51:42.832Z,98181.16
2022-09-20T13:54:25.623Z,98188.47
2022-09-20T13:56:55.006Z,98186.81
2022-09-20T13:59:23.558Z,98180.06
2022-09-20T14:01:54.625Z,98184.53
2022-09-20T14:04:24.524Z,98187.63
2022-09-20T14:06:55.263Z,98190.22
2022-09-20T14:09:28.555Z,98183.72
2022-09-20T14:11:56.709Z,98189.00
2022-09-20T14:14:25.406Z,98184.63
2022-09-20T14:16:56.291Z,98191.69
2022-09-20T14:19:29.035Z,98184.19
2022-09-20T14:21:57.015Z,98188.16
2022-09-20T14:24:29.815Z,98192.03
2022-09-20T14:27:03.764Z,98192.03
2022-09-20T14:29:39.630Z,98194.16
2022-09-20T14:32:29.602Z,98195.53
2022-09-20T14:35:03.317Z,98196.25
2022-09-20T14:37:32.957Z,98192.16
2022-09-20T14:40:03.130Z,98191.34
2022-09-20T14:42:35.340Z,98191.13
2022-09-20T14:45:04.127Z,98197.81
2022-09-20T14:47:39.388Z,98195.81
2022-09-20T14:50:24.858Z,98188.16
2022-09-20T14:53:18.941Z,98190.75
2022-09-20T14:56:00.564Z,98190.06
2022-09-20T14:58:28.105Z,98195.47
2022-09-20T15:00:58.553Z,98185.94
2022-09-20T15:03:31.032Z,98194.06
2022-09-20T15:05:58.803Z,98194.72
2022-09-20T15:08:26.536Z,98197.63
2022-09-20T15:10:53.908Z,98198.13
2022-09-20T15:13:21.399Z,98199.28
2022-09-20T15:15:51.202Z,98195.53
2022-09-20T15:18:21.735Z,98196.72
2022-09-20T15:20:51.183Z,98199.47
2022-09-20T15:23:18.711Z,98200.34
2022-09-20T15:25:46.135Z,98196.59
2022-09-20T15:28:14.790Z,98192.84
2022-09-20T15:30:42.206Z,98193.00
2022-09-20T15:33:10.459Z,98193.38
2022-09-20T15:35:38.436Z,98192.91
2022-09-20T15:38:07.925Z,98192.13
2022-09-20T15:40:36.120Z,98192.16
2022-09-20T15:43:03.654Z,98192.16
2022-09-20T15:45:31.196Z,98187.34
2022-09-20T15:47:58.647Z,98187.22
2022-09-20T15:50:26.107Z,98184.13
2022-09-20T15:52:55.816Z,98189.97
2022-09-20T15:55:28.737Z,98194.53
2022-09-20T15:57:59.237Z,98190.06
2022-09-20T16:00:26.819Z,98194.97
2022-09-20T16:02:54.300Z,98192.84
2022-09-20T16:05:21.912Z,98194.94
2022-09-20T16:07:49.437Z,98188.47
2022-09-20T16:10:16.842Z,98194.84
2022-09-20T16:12:45.802Z,98192.44
2022-09-20T16:15:13.280Z,98189.72
2022-09-20T16:17:40.677Z,98188.81
2022-09-20T16:20:08.993Z,98183.78
2022-09-20T16:22:36.480Z,98185.31
2022-09-20T16:25:04.287Z,98181.63
2022-09-20T16:27:31.987Z,98184.88
2022-09-20T16:30:01.307Z,98187.81
2022-09-20T16:32:28.766Z,98183.38
2022-09-20T16:34:56.654Z,98190.25
2022-09-20T16:37:24.040Z,98197.50
2022-09-20T16:39:51.453Z,98189.75
2022-09-20T16:42:18.930Z,98193.06
2022-09-20T16:44:46.298Z,98185.19
2022-09-20T16:47:15.928Z,98194.88
2022-09-20T16:49:43.510Z,98186.25
2022-09-20T16:52:11.744Z,98189.53
2022-09-20T16:54:39.357Z,98187.22
2022-09-20T16:57:06.887Z,98190.22
2022-09-20T16:59:34.286Z,98196.03
2022-09-20T17:02:01.736Z,98194.81
2022-09-20T17:04:30.649Z,98193.44
2022-09-20T17:06:58.048Z,98197.03
2022-09-20T17:09:25.575Z,98192.13
2022-09-20T17:11:53.004Z,98183.44
2022-09-20T17:14:21.030Z,98191.22
2022-09-20T17:16:48.548Z,98189.25
2022-09-20T17:19:17.963Z,98194.72
2022-09-20T17:21:48.990Z,98193.06
2022-09-20T17:24:17.781Z,98198.06
2022-09-20T17:26:45.719Z,98195.56
2022-09-20T17:29:14.665Z,98198.16
2022-09-20T17:31:43.854Z,98198.34
2022-09-20T17:34:12.359Z,98194.66
2022-09-20T17:36:41.007Z,98187.31
2022-09-20T17:39:10.948Z,98199.47
2022-09-20T17:41:39.381Z,98195.72
2022-09-20T17:44:06.850Z,98192.19
2022-09-20T17:46:35.495Z,98195.34
2022-09-20T17:49:05.175Z,98185.94
2022-09-20T17:51:33.274Z,98188.81
2022-09-20T17:54:01.258Z,98186.53
2022-09-20T17:56:30.670Z,98188.84
2022-09-20T17:58:59.195Z,98188.84
2022-09-20T18:01:28.143Z,98187.59
2022-09-20T18:03:57.238Z,98185.34
2022-09-20T18:06:26.117Z,98182.63
2022-09-20T18:08:55.564Z,98181.38
2022-09-20T18:11:26.897Z,98189.53
2022-09-20T18:13:55.815Z,98183.72
2022-09-20T18:16:23.392Z,98186.78
2022-09-20T18:18:51.187Z,98194.00
2022-09-20T18:21:19.880Z,98191.19
2022-09-20T18:23:48.266Z,98189.13
2022-09-20T18:26:17.135Z,98189.97
2022-09-20T18:28:48.697Z,98190.69
2022-09-20T18:31:18.265Z,98190.97
2022-09-20T18:33:45.774Z,98183.06
2022-09-20T18:36:13.472Z,98183.47
2022-09-20T18:38:44.515Z,98183.31
2022-09-20T18:41:12.516Z,98186.47
2022-09-20T18:43:40.637Z,98182.91
2022-09-20T18:46:08.217Z,98180.22
2022-09-20T18:48:37.075Z,98182.81
2022-09-20T18:51:05.359Z,98179.56
2022-09-20T18:53:34.115Z,98171.50
2022-09-20T18:56:06.842Z,98180.69
2022-09-20T18:58:35.457Z,98186.09
2022-09-20T19:01:22.604Z,98177.97
2022-09-20T19:04:01.006Z,98189.44
2022-09-20T19:06:34.006Z,98185.53
2022-09-20T19:09:07.121Z,98193.41
2022-09-20T19:11:39.488Z,98186.78
2022-09-20T19:14:13.173Z,98193.25
2022-09-20T19:16:40.900Z,98200.13
2022-09-20T19:19:33.515Z,98197.22
2022-09-20T19:22:15.093Z,98203.25
2022-09-20T19:25:09.617Z,98197.25
2022-09-20T19:27:37.463Z,98195.41
2022-09-20T19:30:05.929Z,98203.72
2022-09-20T19:32:34.327Z,98207.22
2022-09-20T19:35:04.111Z,98207.22
2022-09-20T19:37:35.851Z,98205.16
2022-09-20T19:40:28.247Z,98205.97
2022-09-20T19:43:08.741Z,98202.66
2022-09-20T19:45:47.126Z,98197.66
2022-09-20T19:48:20.955Z,98193.28
2022-09-20T19:50:52.144Z,98200.97
2022-09-20T19:53:21.787Z,98202.66
2022-09-20T19:55:54.109Z,98202.22
2022-09-20T19:58:22.118Z,98199.50
2022-09-20T20:00:50.185Z,98194.50
2022-09-20T20:03:20.706Z,98197.41
2022-09-20T20:06:02.419Z,98193.50
2022-09-20T20:08:38.177Z,98195.16
2022-09-20T20:11:13.939Z,98193.69
2022-09-20T20:13:49.615Z,98192.50
2022-09-20T20:16:23.535Z,98185.63
2022-09-20T20:19:02.896Z,98177.94
2022-09-20T20:21:42.490Z,98185.19
2022-09-20T20:24:15.822Z,98178.38
2022-09-20T20:26:43.173Z,98180.84
2022-09-20T20:29:10.709Z,98184.59
2022-09-20T20:31:38.304Z,98182.50
2022-09-20T20:34:05.675Z,98185.81
2022-09-20T20:36:34.614Z,98183.34
2022-09-20T20:39:02.026Z,98190.84
2022-09-20T20:41:29.420Z,98199.13
2022-09-20T20:43:56.783Z,98192.25
2022-09-20T20:46:24.514Z,98185.19
2022-09-20T20:48:51.985Z,98188.94
2022-09-20T20:51:21.840Z,98182.88
2022-09-20T20:53:51.971Z,98191.22
2022-09-20T20:56:21.452Z,98193.31
2022-09-20T20:58:49.666Z,98199.34
2022-09-20T21:01:19.427Z,98208.34
2022-09-20T21:03:48.386Z,98200.44
2022-09-20T21:06:16.418Z,98203.13
2022-09-20T21:08:48.981Z,98206.03
2022-09-20T21:11:20.878Z,98202.28
2022-09-20T21:13:48.246Z,98206.25
2022-09-20T21:16:17.712Z,98206.44
2022-09-20T21:18:46.594Z,98215.19
2022-09-20T21:21:16.577Z,98213.13
2022-09-20T21:23:44.525Z,98214.53
2022-09-20T21:26:13.355Z,98220.22
2022-09-20T21:28:43.714Z,98218.19
2022-09-20T21:31:12.590Z,98220.44
2022-09-20T21:33:41.658Z,98220.84
2022-09-20T21:36:11.209Z,98216.13
2022-09-20T21:38:39.304Z,98224.59
2022-09-20T21:41:08.946Z,98230.25
2022-09-20T21:43:36.917Z,98235.84
2022-09-20T21:46:05.911Z,98240.88
2022-09-20T21:48:33.282Z,98242.31
2022-09-20T21:51:02.295Z,98248.97
2022-09-20T21:53:31.846Z,98246.59
2022-09-20T21:56:00.258Z,98258.63
2022-09-20T21:58:28.046Z,98253.25
2022-09-20T22:01:03.686Z,98257.59
2022-09-20T22:03:34.271Z,98261.03
2022-09-20T22:06:13.110Z,98265.00
2022-09-20T22:08:42.568Z,98266.19
2022-09-20T22:11:14.636Z,98269.09
2022-09-20T22:13:43.481Z,98281.19
2022-09-20T22:16:12.742Z,98277.16
2022-09-20T22:18:43.146Z,98275.56
2022-09-20T22:21:12.270Z,98273.59
2022-09-20T22:23:40.184Z,98269.69
2022-09-20T22:26:10.123Z,98271.78
2022-09-20T22:28:37.844Z,98276.38
2022-09-20T22:31:07.972Z,98277.16
2022-09-20T22:33:35.879Z,98274.94
2022-09-20T22:36:07.774Z,98286.94
2022-09-20T22:38:35.121Z,98290.47
2022-09-20T22:41:02.529Z,98295.84
2022-09-20T22:43:32.309Z,98289.50
2022-09-20T22:46:03.305Z,98294.41
2022-09-20T22:48:30.966Z,98292.78
2022-09-20T22:51:01.907Z,98304.44
2022-09-20T22:53:31.565Z,98305.75
2022-09-20T22:56:09.422Z,98305.09
2022-09-20T22:58:38.135Z,98308.84
2022-09-20T23:01:07.212Z,98291.69
2022-09-20T23:03:35.123Z,98302.72
2022-09-20T23:06:02.773Z,98294.00
2022-09-20T23:08:33.129Z,98301.84
2022-09-20T23:11:01.903Z,98292.94
2022-09-20T23:13:29.821Z,98285.06
2022-09-20T23:15:57.319Z,98297.69
2022-09-20T23:18:25.068Z,98296.28
2022-09-20T23:21:00.742Z,98287.31
2022-09-20T23:23:29.426Z,98291.91
2022-09-20T23:26:03.862Z,98292.94
2022-09-20T23:28:31.240Z,98284.88
2022-09-20T23:31:04.450Z,98288.16
2022-09-20T23:33:32.395Z,98287.16
2022-09-20T23:36:00.528Z,98287.25
2022-09-20T23:38:28.378Z,98276.41
2022-09-20T23:41:01.622Z,98286.94
2022-09-20T23:43:29.150Z,98274.81
2022-09-20T23:45:57.174Z,98279.59
2022-09-20T23:48:24.587Z,98288.59
2022-09-20T23:50:52.770Z,98288.59
2022-09-20T23:53:20.232Z,98279.66
2022-09-20T23:55:47.650Z,98285.66
2022-09-20T23:58:16.919Z,98279.66
